Mount Morris, NY (14510)

10:14 AM EDT on September 22, 2014 (GMT -0400)
mount morris ny | Change Station
CLOSE
Current Station
Personal Weather Station
Location: Mount Morris, NY
Elevation: 856 ft
Nearby Weather Stations

Elev 856 ft 42.73 °N, 77.90 °W | Updated 31 seconds ago

Overcast
Overcast
52.3 °F
Feels Like 52.3 °F
N
5.4
Wind Variable Wind from West
Gusts 11.4 mph

Today
High -- | Low -- °F
--% Chance of Precip.
Yesterday
High -- | Low -- °F
Precip. -- in
6:58 AM 7:08 PM
Waning Crescent, 3% visible
Pressure 30.06 in
Visibility 10.0 miles
Clouds Overcast 2700 ft
Dew Point 44 °F
Humidity 73%
Rainfall 0.00 in
Snow Depth Not available.
UV 1 out of 12
Pollen 2.70 out of 12
Ozone Good
PM2.5 Good
Flu Activity Not available.
METAR KDSV 221354Z AUTO 31009KT 10SM -RA OVC027 09/06 A3003 RMK AO2 RAB47 SLP179 P0000 T00890061

More Conditions Fewer Conditions

Pressure 30.06 in
Visibility 10.0 miles
Clouds Overcast 2700 ft
Dew Point 44 °F
Humidity 73%
Rainfall 0.00 in
Snow Depth Not available.
UV 1 out of 12
Pollen 2.70 out of 12
Ozone Good
PM2.5 Good
Flu Activity Not available.
METAR KDSV 221354Z AUTO 31009KT 10SM -RA OVC027 09/06 A3003 RMK AO2 RAB47 SLP179 P0000 T00890061

More Conditions Fewer Conditions

10-Day Weather Forecast

Almanac

Astronomy

Sep. 22, 2014 Rise Set
Actual Time 6:58 AM EDT 7:08 PM EDT
Civil Twilight 6:30 AM EDT 7:37 PM EDT
Nautical Twilight 5:57 AM EDT 8:10 PM EDT
Astronomical Twilight 5:23 AM EDT 8:43 PM EDT
Moon 5:24 AM EDT 6:16 PM EDT
Length of Visible Light 13h 06m
Length of Day
12h 10m
Tomorrow will be 2m 52s shorter.
Waning Crescent, 3% of the Moon is Illuminated
Today
Waning Crescent
Sep 24
New
Oct 1
First Quarter
Oct 8
Full
Oct 15
Last Quarter

Today's Extremes

State Highs State Lows

Community

WunderPhotos

Upload Photos

1,755,444 photos uploaded!

WunderBlogs® & News

By Dr. Jeff Masters
Director of Meteorology, Weather Underground
By Kari Strenfel
Meteorologist, Weather Underground
By Christopher C. Burt
Weather Historian, Weather Underground
September 22, 2014
September 22, 2014
September 22, 2014

Nearby

Air Quality

  Air Quality AQ Index Pollutant
Yesterday Good
OZONE
Yesterday Good
PM2.5
Current Good
OZONE
Current Good
PM2.5
Monday Good
OZONE
Monday Good
PM2.5

Snow Depth

Station Depth Elevation
No new snow has been reported.

Earthquake Activity

City Distance Mag. Time & Date
No recent earthquake activity has been reported nearby.
Minimum magnitude displayed is 2.5.

Coastal Water Temperatures

Place Temperature
No Stations Reporting

Nearby Weather Stations